Aviation Digital Data Service (ADDS)

Output produced by METARs form (1036 UTC 18 August 2017)
found at http://www.aviationweather.gov/adds/metars/
 
KWWD 180955Z AUTO 18014G18KT 10SM OVC006 25/24 A2990 RMK AO2 SLP128 T02500239